createdAt,value
2022-12-04T00:01:13.048Z,165.07
2022-12-04T00:03:44.163Z,153.40
2022-12-04T00:06:18.103Z,154.18
2022-12-04T00:08:53.507Z,161.95
2022-12-04T00:11:28.246Z,157.32
2022-12-04T00:14:06.505Z,164.73
2022-12-04T00:16:39.499Z,155.40
2022-12-04T00:19:11.336Z,167.07
2022-12-04T00:21:43.300Z,158.45
2022-12-04T00:24:17.365Z,151.27
2022-12-04T00:26:49.153Z,167.73
2022-12-04T00:29:20.719Z,155.20
2022-12-04T00:31:52.564Z,163.80
2022-12-04T00:34:25.268Z,174.02
2022-12-04T00:36:57.731Z,166.52
2022-12-04T00:39:31.941Z,168.43
2022-12-04T00:42:07.128Z,171.30
2022-12-04T00:44:41.322Z,163.68
2022-12-04T00:47:16.040Z,169.63
2022-12-04T00:49:49.225Z,171.00
2022-12-04T00:52:21.016Z,162.05
2022-12-04T00:54:55.303Z,166.57
2022-12-04T00:57:27.112Z,175.55
2022-12-04T00:59:58.669Z,169.38
2022-12-04T01:02:34.216Z,159.25
2022-12-04T01:05:07.843Z,173.32
2022-12-04T01:07:39.972Z,178.48
2022-12-04T01:10:15.986Z,176.85
2022-12-04T01:12:49.174Z,170.68
2022-12-04T01:15:23.350Z,177.68
2022-12-04T01:17:55.805Z,171.60
2022-12-04T01:20:27.681Z,188.52
2022-12-04T01:23:00.104Z,188.05
2022-12-04T01:25:34.887Z,174.23
2022-12-04T01:28:08.316Z,170.90
2022-12-04T01:30:40.407Z,168.82
2022-12-04T01:33:13.178Z,182.65
2022-12-04T01:35:45.339Z,191.10
2022-12-04T01:38:17.876Z,169.77
2022-12-04T01:40:52.595Z,179.32
2022-12-04T01:43:38.357Z,180.07
2022-12-04T01:46:11.269Z,181.05
2022-12-04T01:48:47.528Z,180.13
2022-12-04T01:51:23.785Z,185.02
2022-12-04T01:53:59.835Z,192.90
2022-12-04T01:56:39.807Z,172.20
2022-12-04T01:59:16.476Z,196.57
2022-12-04T02:01:57.899Z,197.25
2022-12-04T02:04:29.846Z,203.98
2022-12-04T02:07:00.989Z,194.98
2022-12-04T02:09:34.152Z,199.25
2022-12-04T02:12:16.978Z,193.52
2022-12-04T02:15:01.741Z,193.60
2022-12-04T02:17:42.735Z,197.27
2022-12-04T02:20:28.949Z,202.68
2022-12-04T02:23:36.713Z,218.25
2022-12-04T02:26:25.554Z,195.65
2022-12-04T02:29:04.911Z,196.07
2022-12-04T02:31:43.984Z,193.82
2022-12-04T02:34:24.226Z,194.02
2022-12-04T02:37:07.568Z,187.20
2022-12-04T02:39:43.561Z,211.38
2022-12-04T02:42:21.525Z,195.93
2022-12-04T02:45:03.241Z,196.82
2022-12-04T02:47:36.758Z,199.13
2022-12-04T02:50:13.049Z,191.85
2022-12-04T02:52:50.027Z,199.20
2022-12-04T02:55:27.239Z,195.45
2022-12-04T02:58:04.886Z,209.23
2022-12-04T03:00:42.127Z,197.93
2022-12-04T03:03:21.180Z,207.00
2022-12-04T03:05:59.337Z,208.15
2022-12-04T03:08:36.068Z,207.55
2022-12-04T03:11:08.186Z,186.32
2022-12-04T03:13:45.140Z,202.82
2022-12-04T03:16:22.716Z,221.75
2022-12-04T03:18:59.189Z,208.20
2022-12-04T03:21:35.756Z,213.25
2022-12-04T03:24:16.299Z,204.95
2022-12-04T03:26:50.636Z,201.38
2022-12-04T03:29:26.746Z,194.93
2022-12-04T03:32:06.417Z,197.45
2022-12-04T03:34:46.917Z,183.15
2022-12-04T03:37:22.245Z,202.05
2022-12-04T03:40:01.800Z,169.35
2022-12-04T03:43:00.726Z,198.07
2022-12-04T03:45:41.380Z,181.48
2022-12-04T03:48:23.662Z,203.57
2022-12-04T03:51:03.608Z,188.30
2022-12-04T03:53:41.645Z,188.32
2022-12-04T03:56:19.177Z,189.13
2022-12-04T03:58:54.936Z,184.48
2022-12-04T04:01:31.688Z,192.35
2022-12-04T04:04:10.036Z,183.40
2022-12-04T04:06:47.487Z,190.25
2022-12-04T04:09:22.995Z,199.52
2022-12-04T04:12:00.396Z,169.80
2022-12-04T04:14:49.026Z,173.35
2022-12-04T04:17:39.833Z,176.70
2022-12-04T04:20:31.379Z,169.85
2022-12-04T04:23:20.426Z,166.80
2022-12-04T04:25:55.045Z,167.95
2022-12-04T04:28:33.954Z,178.25
2022-12-04T04:31:13.420Z,173.63
2022-12-04T04:33:55.069Z,164.25
2022-12-04T04:36:39.736Z,172.48
2022-12-04T04:39:21.348Z,167.68
2022-12-04T04:41:59.731Z,160.55
2022-12-04T04:44:42.690Z,165.20
2022-12-04T04:47:21.180Z,167.65
2022-12-04T04:49:55.624Z,169.60
2022-12-04T04:52:33.962Z,155.27
2022-12-04T04:55:11.070Z,164.50
2022-12-04T04:57:45.791Z,165.73
2022-12-04T05:00:23.484Z,160.18
2022-12-04T05:02:56.316Z,153.50
2022-12-04T05:05:32.731Z,167.45
2022-12-04T05:08:13.671Z,158.32
2022-12-04T05:10:50.979Z,165.25
2022-12-04T05:13:49.870Z,168.32
2022-12-04T05:16:27.697Z,169.38
2022-12-04T05:19:11.577Z,162.80
2022-12-04T05:21:44.115Z,169.50
2022-12-04T05:24:20.590Z,170.43
2022-12-04T05:26:55.765Z,164.70
2022-12-04T05:29:30.405Z,167.52
2022-12-04T05:32:09.355Z,160.63
2022-12-04T05:34:41.233Z,158.93
2022-12-04T05:37:13.071Z,158.55
2022-12-04T05:39:47.357Z,157.60
2022-12-04T05:42:22.049Z,175.05
2022-12-04T05:44:59.304Z,163.30
2022-12-04T05:47:31.683Z,166.55
2022-12-04T05:50:03.552Z,163.43
2022-12-04T05:52:36.703Z,163.07
2022-12-04T05:55:26.255Z,165.45
2022-12-04T05:58:01.601Z,149.68
2022-12-04T06:00:34.142Z,149.20
2022-12-04T06:03:07.391Z,161.88
2022-12-04T06:05:39.483Z,158.38
2022-12-04T06:08:11.792Z,160.52
2022-12-04T06:10:46.444Z,150.82
2022-12-04T06:13:18.922Z,158.80
2022-12-04T06:15:50.792Z,162.95
2022-12-04T06:18:23.133Z,164.93
2022-12-04T06:20:55.232Z,143.15
2022-12-04T06:23:27.843Z,160.98
2022-12-04T06:26:07.307Z,161.07
2022-12-04T06:28:41.052Z,160.20
2022-12-04T06:31:15.925Z,160.25
2022-12-04T06:33:48.923Z,172.55
2022-12-04T06:36:24.157Z,158.50
2022-12-04T06:39:00.254Z,168.05
2022-12-04T06:41:35.332Z,170.00
2022-12-04T06:44:09.284Z,162.38
2022-12-04T06:46:46.529Z,162.18
2022-12-04T06:49:23.198Z,169.98
2022-12-04T06:51:58.558Z,165.23
2022-12-04T06:54:31.106Z,169.70
2022-12-04T06:57:05.663Z,164.75
2022-12-04T06:59:38.012Z,158.70
2022-12-04T07:02:10.178Z,167.77
2022-12-04T07:04:43.053Z,160.75
2022-12-04T07:07:15.402Z,166.25
2022-12-04T07:09:48.035Z,162.20
2022-12-04T07:12:22.853Z,163.82
2022-12-04T07:14:55.462Z,156.43
2022-12-04T07:17:27.403Z,159.18
2022-12-04T07:20:00.023Z,169.90
2022-12-04T07:22:32.103Z,168.77
2022-12-04T07:25:04.424Z,158.00
2022-12-04T07:27:39.203Z,169.25
2022-12-04T07:30:15.878Z,161.85
2022-12-04T07:32:48.166Z,160.73
2022-12-04T07:35:20.315Z,173.85
2022-12-04T07:37:52.458Z,175.30
2022-12-04T07:40:25.940Z,175.07
2022-12-04T07:43:01.488Z,167.02
2022-12-04T07:45:33.685Z,171.40
2022-12-04T07:48:05.504Z,171.65
2022-12-04T07:50:37.431Z,159.95
2022-12-04T07:53:09.090Z,169.05
2022-12-04T07:55:41.416Z,161.70
2022-12-04T07:58:15.487Z,168.85
2022-12-04T08:00:47.786Z,164.02
2022-12-04T08:03:22.397Z,156.10
2022-12-04T08:05:54.626Z,159.63
2022-12-04T08:08:32.480Z,162.48
2022-12-04T08:11:08.265Z,155.20
2022-12-04T08:13:43.275Z,157.43
2022-12-04T08:16:16.458Z,153.27
2022-12-04T08:18:48.864Z,161.63
2022-12-04T08:21:23.894Z,160.95
2022-12-04T08:23:58.234Z,158.77
2022-12-04T08:26:33.992Z,161.85
2022-12-04T08:29:09.674Z,159.82
2022-12-04T08:31:42.346Z,152.35
2022-12-04T08:34:14.475Z,165.05
2022-12-04T08:36:47.074Z,148.10
2022-12-04T08:39:38.476Z,153.63
2022-12-04T08:42:11.573Z,152.65
2022-12-04T08:44:46.264Z,152.90
2022-12-04T08:47:18.577Z,154.82
2022-12-04T08:49:56.470Z,155.50
2022-12-04T08:52:55.711Z,152.65
2022-12-04T08:55:27.894Z,155.00
2022-12-04T08:58:01.481Z,147.88
2022-12-04T09:00:35.547Z,147.20
2022-12-04T09:03:09.323Z,152.88
2022-12-04T09:05:42.369Z,152.35
2022-12-04T09:08:17.052Z,152.45
2022-12-04T09:10:49.128Z,144.32
2022-12-04T09:13:22.942Z,142.40
2022-12-04T09:15:59.753Z,149.10
2022-12-04T09:18:32.114Z,141.32
2022-12-04T09:21:06.074Z,143.75
2022-12-04T09:23:42.389Z,150.88
2022-12-04T09:26:25.697Z,142.55
2022-12-04T09:29:21.279Z,151.43
2022-12-04T09:32:01.084Z,151.77
2022-12-04T09:34:36.730Z,137.82
2022-12-04T09:37:08.362Z,140.15
2022-12-04T09:39:41.453Z,138.27
2022-12-04T09:42:38.295Z,129.32
2022-12-04T09:45:19.460Z,137.10
2022-12-04T09:47:56.689Z,132.80
2022-12-04T09:50:35.551Z,143.48
2022-12-04T09:53:46.777Z,139.45
2022-12-04T09:56:32.666Z,129.48
2022-12-04T09:59:12.678Z,127.00
2022-12-04T10:01:54.274Z,137.48
2022-12-04T10:04:33.284Z,131.13
2022-12-04T10:07:12.258Z,139.80
2022-12-04T10:10:01.529Z,135.45
2022-12-04T10:12:57.665Z,140.52
2022-12-04T10:15:36.203Z,134.13
2022-12-04T10:18:21.388Z,150.65
2022-12-04T10:21:20.688Z,136.75
2022-12-04T10:24:05.487Z,145.63
2022-12-04T10:26:42.711Z,139.77
2022-12-04T10:29:23.676Z,141.35
2022-12-04T10:31:59.068Z,140.65
2022-12-04T10:34:35.009Z,139.10
2022-12-04T10:37:17.036Z,135.55
2022-12-04T10:39:56.433Z,139.77
2022-12-04T10:42:39.351Z,136.38
2022-12-04T10:45:15.630Z,126.72
2022-12-04T10:47:52.189Z,134.18
2022-12-04T10:50:27.249Z,134.90
2022-12-04T10:53:02.307Z,139.07
2022-12-04T10:55:38.547Z,129.48
2022-12-04T10:58:20.888Z,137.02
2022-12-04T11:01:05.929Z,128.90
2022-12-04T11:03:38.580Z,125.15
2022-12-04T11:06:13.570Z,135.57
2022-12-04T11:08:56.448Z,126.30
2022-12-04T11:11:32.706Z,131.75
2022-12-04T11:14:06.815Z,125.40
2022-12-04T11:16:45.064Z,130.32
2022-12-04T11:19:29.406Z,126.13
2022-12-04T11:22:07.889Z,124.65
2022-12-04T11:24:44.671Z,128.32
2022-12-04T11:27:25.211Z,122.30
2022-12-04T11:29:58.314Z,126.53
2022-12-04T11:32:36.091Z,130.25
2022-12-04T11:35:17.769Z,126.40
2022-12-04T11:37:58.616Z,125.72
2022-12-04T11:40:34.027Z,124.60
2022-12-04T11:43:09.916Z,126.18
2022-12-04T11:45:42.399Z,117.13
2022-12-04T11:48:29.388Z,120.97
2022-12-04T11:51:10.848Z,118.13
2022-12-04T11:53:55.449Z,117.68
2022-12-04T11:56:35.247Z,119.70
2022-12-04T11:59:38.829Z,120.45
2022-12-04T12:02:33.794Z,110.93
2022-12-04T12:05:20.409Z,117.13
2022-12-04T12:08:02.374Z,118.38
2022-12-04T12:10:44.964Z,123.50
2022-12-04T12:13:30.888Z,128.52
2022-12-04T12:16:11.610Z,123.75
2022-12-04T12:19:08.958Z,116.28
2022-12-04T12:21:53.100Z,123.93
2022-12-04T12:24:30.520Z,122.00
2022-12-04T12:27:31.939Z,118.93
2022-12-04T12:30:12.972Z,118.70
2022-12-04T12:33:11.863Z,123.45
2022-12-04T12:35:51.544Z,120.97
2022-12-04T12:38:29.567Z,117.97
2022-12-04T12:41:09.632Z,115.88
2022-12-04T12:43:44.686Z,117.57
2022-12-04T12:46:40.965Z,121.38
2022-12-04T12:49:18.605Z,128.40
2022-12-04T12:51:56.244Z,125.57
2022-12-04T12:54:41.146Z,125.63
2022-12-04T12:57:19.185Z,124.35
2022-12-04T12:59:59.965Z,126.25
2022-12-04T13:02:42.384Z,130.98
2022-12-04T13:05:20.967Z,133.32
2022-12-04T13:08:01.577Z,132.43
2022-12-04T13:10:38.712Z,126.80
2022-12-04T13:13:37.164Z,122.55
2022-12-04T13:16:14.043Z,128.57
2022-12-04T13:18:54.604Z,119.07
2022-12-04T13:21:36.530Z,129.98
2022-12-04T13:24:45.284Z,126.00
2022-12-04T13:27:26.653Z,129.25
2022-12-04T13:30:11.466Z,124.53
2022-12-04T13:33:10.885Z,118.05
2022-12-04T13:36:15.471Z,118.28
2022-12-04T13:39:07.856Z,117.88
2022-12-04T13:41:42.656Z,123.43
2022-12-04T13:44:22.437Z,124.03
2022-12-04T13:47:00.802Z,130.93
2022-12-04T13:49:34.970Z,129.90
2022-12-04T13:52:26.520Z,128.57
2022-12-04T13:55:03.615Z,126.30
2022-12-04T13:57:36.016Z,130.88
2022-12-04T14:00:27.679Z,131.75
2022-12-04T14:03:02.476Z,128.00
2022-12-04T14:05:43.317Z,124.88
2022-12-04T14:08:29.057Z,140.05
2022-12-04T14:11:06.158Z,137.07
2022-12-04T14:13:47.896Z,134.85
2022-12-04T14:16:25.835Z,143.65
2022-12-04T14:19:00.985Z,143.88
2022-12-04T14:21:43.396Z,140.65
2022-12-04T14:24:33.177Z,143.45
2022-12-04T14:27:12.013Z,145.30
2022-12-04T14:29:52.838Z,151.45
2022-12-04T14:32:29.516Z,144.43
2022-12-04T14:35:02.078Z,145.95
2022-12-04T14:37:39.717Z,152.35
2022-12-04T14:40:25.659Z,162.38
2022-12-04T14:42:58.757Z,163.05
2022-12-04T14:45:40.145Z,170.70
2022-12-04T14:48:27.815Z,166.27
2022-12-04T14:51:09.796Z,163.70
2022-12-04T14:53:50.696Z,154.55
2022-12-04T14:56:45.095Z,156.95
2022-12-04T14:59:20.997Z,168.88
2022-12-04T15:01:59.017Z,164.15
2022-12-04T15:04:34.866Z,172.48
2022-12-04T15:07:08.024Z,178.18
2022-12-04T15:09:52.643Z,166.05
2022-12-04T15:12:38.042Z,180.45
2022-12-04T15:15:22.764Z,164.32
2022-12-04T15:18:06.142Z,184.52
2022-12-04T15:20:45.043Z,174.77
2022-12-04T15:23:19.803Z,180.50
2022-12-04T15:25:55.423Z,192.52
2022-12-04T15:28:34.882Z,182.43
2022-12-04T15:31:13.758Z,184.85
2022-12-04T15:33:48.144Z,185.75
2022-12-04T15:36:28.106Z,173.15
2022-12-04T15:39:03.014Z,182.00
2022-12-04T15:41:39.013Z,183.85
2022-12-04T15:44:31.435Z,174.05
2022-12-04T15:47:06.344Z,183.57
2022-12-04T15:49:38.116Z,192.65
2022-12-04T15:52:18.061Z,177.65
2022-12-04T15:54:58.003Z,183.75
2022-12-04T15:57:33.554Z,177.68
2022-12-04T16:00:11.675Z,177.32
2022-12-04T16:02:46.598Z,182.52
2022-12-04T16:05:33.279Z,174.80
2022-12-04T16:08:24.456Z,183.20
2022-12-04T16:11:02.254Z,181.35
2022-12-04T16:13:36.652Z,198.20
2022-12-04T16:16:15.924Z,202.43
2022-12-04T16:18:49.234Z,209.57
2022-12-04T16:21:24.192Z,189.13
2022-12-04T16:23:56.560Z,203.43
2022-12-04T16:26:38.623Z,195.50
2022-12-04T16:29:10.835Z,225.27
2022-12-04T16:31:45.767Z,208.75
2022-12-04T16:34:18.709Z,203.50
2022-12-04T16:36:50.629Z,211.75
2022-12-04T16:39:23.016Z,207.68
2022-12-04T16:41:55.808Z,212.98
2022-12-04T16:44:28.247Z,223.68
2022-12-04T16:47:02.950Z,230.15
2022-12-04T16:49:35.349Z,242.35
2022-12-04T16:52:08.025Z,243.43
2022-12-04T16:54:40.436Z,204.15
2022-12-04T16:57:13.355Z,251.98
2022-12-04T16:59:45.675Z,235.70
2022-12-04T17:02:26.923Z,230.13
2022-12-04T17:10:24.220Z,273.55
2022-12-04T17:12:58.360Z,253.52
2022-12-04T17:15:31.309Z,272.83
2022-12-04T17:18:11.221Z,257.00
2022-12-04T17:20:49.906Z,256.58
2022-12-04T17:23:21.213Z,241.82
2022-12-04T17:25:53.914Z,258.00
2022-12-04T17:28:25.438Z,289.85
2022-12-04T17:30:58.190Z,287.73
2022-12-04T17:33:32.444Z,278.40
2022-12-04T17:36:05.164Z,268.60
2022-12-04T17:38:38.165Z,285.92
2022-12-04T17:41:17.094Z,270.20
2022-12-04T17:43:48.878Z,263.73
2022-12-04T17:46:26.687Z,265.40
2022-12-04T17:49:06.977Z,250.13
2022-12-04T17:51:41.970Z,260.77
2022-12-04T17:54:15.569Z,263.63
2022-12-04T17:56:50.396Z,248.35
2022-12-04T17:59:26.028Z,259.65
2022-12-04T18:02:00.080Z,259.40
2022-12-04T18:04:39.951Z,266.70
2022-12-04T18:07:13.217Z,266.05
2022-12-04T18:09:44.648Z,260.05
2022-12-04T18:12:17.720Z,266.48
2022-12-04T18:14:53.187Z,265.35
2022-12-04T18:17:34.150Z,252.57
2022-12-04T18:20:12.055Z,260.23
2022-12-04T18:22:44.255Z,251.20
2022-12-04T18:25:20.175Z,270.88
2022-12-04T18:27:54.025Z,259.33
2022-12-04T18:30:27.102Z,248.55
2022-12-04T18:33:03.291Z,246.50
2022-12-04T18:35:37.398Z,273.05
2022-12-04T18:38:16.611Z,263.08
2022-12-04T18:40:50.453Z,271.23
2022-12-04T18:43:23.330Z,276.08
2022-12-04T18:46:07.691Z,248.13
2022-12-04T18:48:41.805Z,253.30
2022-12-04T18:51:37.429Z,259.00
2022-12-04T18:54:24.266Z,239.30
2022-12-04T18:57:11.896Z,229.45
2022-12-04T18:59:57.094Z,235.90
2022-12-04T19:02:31.135Z,235.88
2022-12-04T19:05:03.487Z,218.75
2022-12-04T19:07:45.147Z,228.65
2022-12-04T19:10:18.620Z,227.80
2022-12-04T19:12:52.839Z,199.95
2022-12-04T19:15:27.480Z,238.93
2022-12-04T19:17:59.240Z,255.38
2022-12-04T19:20:31.359Z,233.98
2022-12-04T19:23:05.827Z,231.02
2022-12-04T19:25:38.261Z,229.68
2022-12-04T19:28:10.341Z,243.63
2022-12-04T19:30:43.061Z,234.93
2022-12-04T19:33:14.900Z,245.13
2022-12-04T19:35:47.922Z,231.50
2022-12-04T19:38:22.598Z,219.98
2022-12-04T19:41:05.499Z,230.38
2022-12-04T19:43:37.920Z,207.60
2022-12-04T19:46:11.402Z,215.95
2022-12-04T19:48:46.219Z,215.15
2022-12-04T19:51:21.239Z,228.13
2022-12-04T19:54:01.086Z,222.00
2022-12-04T19:56:36.158Z,232.80
2022-12-04T19:59:10.481Z,220.95
2022-12-04T20:01:45.009Z,210.30
2022-12-04T20:04:17.879Z,216.07
2022-12-04T20:06:50.440Z,210.15
2022-12-04T20:09:25.922Z,206.85
2022-12-04T20:11:58.639Z,210.18
2022-12-04T20:14:30.499Z,203.93
2022-12-04T20:17:04.330Z,206.73
2022-12-04T20:19:36.180Z,213.43
2022-12-04T20:22:08.520Z,215.18
2022-12-04T20:25:05.419Z,219.65
2022-12-04T20:27:37.801Z,223.65
2022-12-04T20:30:11.439Z,206.20
2022-12-04T20:32:45.398Z,223.65
2022-12-04T20:35:17.759Z,231.18
2022-12-04T20:37:50.299Z,207.77
2022-12-04T20:40:25.269Z,225.63
2022-12-04T20:42:58.800Z,207.27
2022-12-04T20:45:30.689Z,203.10
2022-12-04T20:48:05.278Z,200.65
2022-12-04T20:50:37.741Z,209.15
2022-12-04T20:53:09.514Z,226.30
2022-12-04T20:55:46.029Z,225.23
2022-12-04T20:58:21.468Z,206.88
2022-12-04T21:00:57.782Z,196.15
2022-12-04T21:03:31.743Z,210.75
2022-12-04T21:06:07.750Z,207.07
2022-12-04T21:08:53.319Z,211.60
2022-12-04T21:11:33.570Z,203.85
2022-12-04T21:14:21.608Z,217.38
2022-12-04T21:16:53.407Z,225.48
2022-12-04T21:19:28.633Z,203.82
2022-12-04T21:21:59.720Z,202.95
2022-12-04T21:24:38.861Z,205.15
2022-12-04T21:27:19.183Z,220.73
2022-12-04T21:29:59.033Z,212.30
2022-12-04T21:32:30.836Z,212.32
2022-12-04T21:35:05.898Z,196.32
2022-12-04T21:37:39.089Z,226.00
2022-12-04T21:40:15.808Z,217.13
2022-12-04T21:42:54.537Z,216.30
2022-12-04T21:45:27.587Z,214.13
2022-12-04T21:47:58.712Z,199.52
2022-12-04T21:50:30.213Z,206.75
2022-12-04T21:53:07.682Z,210.88
2022-12-04T21:55:40.147Z,208.23
2022-12-04T21:58:18.232Z,209.27
2022-12-04T22:00:50.998Z,221.18
2022-12-04T22:03:22.556Z,218.48
2022-12-04T22:06:05.930Z,212.80
2022-12-04T22:08:43.544Z,214.48
2022-12-04T22:11:19.971Z,222.75
2022-12-04T22:13:53.742Z,208.68
2022-12-04T22:16:30.508Z,223.90
2022-12-04T22:19:10.814Z,222.68
2022-12-04T22:21:45.865Z,222.05
2022-12-04T22:24:17.161Z,229.00
2022-12-04T22:26:52.290Z,216.00
2022-12-04T22:32:18.116Z,221.18
2022-12-04T22:34:51.159Z,223.02
2022-12-04T22:37:23.085Z,216.68
2022-12-04T22:39:55.512Z,204.90
2022-12-04T22:42:30.105Z,217.60
2022-12-04T22:45:04.410Z,229.20
2022-12-04T22:47:36.056Z,199.10
2022-12-04T22:50:11.586Z,221.25
2022-12-04T22:52:46.337Z,212.18
2022-12-04T22:55:18.172Z,224.02
2022-12-04T22:57:50.387Z,230.05
2022-12-04T23:00:25.399Z,232.30
2022-12-04T23:02:57.599Z,223.43
2022-12-04T23:05:33.211Z,219.13
2022-12-04T23:08:08.463Z,205.77
2022-12-04T23:10:41.275Z,241.27
2022-12-04T23:13:13.405Z,258.20
2022-12-04T23:15:49.169Z,232.68
2022-12-04T23:18:21.682Z,235.45
2022-12-04T23:20:53.421Z,241.98
2022-12-04T23:23:25.645Z,232.50
2022-12-04T23:25:57.218Z,218.95
2022-12-04T23:28:31.942Z,248.52
2022-12-04T23:31:09.055Z,237.93
2022-12-04T23:33:41.766Z,244.32
2022-12-04T23:36:21.912Z,233.75
2022-12-04T23:38:53.965Z,237.43
2022-12-04T23:41:27.546Z,237.68
2022-12-04T23:44:00.815Z,237.90
2022-12-04T23:46:36.558Z,230.60
2022-12-04T23:49:09.096Z,217.75
2022-12-04T23:51:41.324Z,241.68
2022-12-04T23:54:14.015Z,237.43
2022-12-04T23:56:47.236Z,236.15
2022-12-04T23:59:21.645Z,239.00
